createdAt,value
2023-04-17T00:00:50.129Z,511.00
2023-04-17T00:01:50.246Z,513.00
2023-04-17T00:02:50.278Z,515.00
2023-04-17T00:03:50.306Z,514.00
2023-04-17T00:04:50.276Z,515.00
2023-04-17T00:05:50.230Z,506.00
2023-04-17T00:06:50.267Z,512.00
2023-04-17T00:07:50.277Z,515.00
2023-04-17T00:08:50.297Z,512.00
2023-04-17T00:09:50.325Z,514.00
2023-04-17T00:10:57.059Z,517.00
2023-04-17T00:11:51.375Z,517.00
2023-04-17T00:12:50.388Z,518.00
2023-04-17T00:13:50.414Z,514.00
2023-04-17T00:14:50.430Z,517.00
2023-04-17T00:15:50.459Z,513.00
2023-04-17T00:16:50.532Z,512.00
2023-04-17T00:17:50.510Z,517.00
2023-04-17T00:18:50.555Z,511.00
2023-04-17T00:19:50.525Z,510.00
2023-04-17T00:20:50.537Z,512.00
2023-04-17T00:21:50.585Z,512.00
2023-04-17T00:22:50.624Z,518.00
2023-04-17T00:23:50.634Z,513.00
2023-04-17T00:24:50.646Z,517.00
2023-04-17T00:25:50.667Z,512.00
2023-04-17T00:26:50.680Z,513.00
2023-04-17T00:27:50.705Z,512.00
2023-04-17T00:28:50.792Z,513.00
2023-04-17T00:29:50.753Z,517.00
2023-04-17T00:30:50.793Z,514.00
2023-04-17T00:31:50.804Z,510.00
2023-04-17T00:32:50.905Z,518.00
2023-04-17T00:33:50.834Z,515.00
2023-04-17T00:34:51.056Z,516.00
2023-04-17T00:35:50.917Z,511.00
2023-04-17T00:36:50.898Z,512.00
2023-04-17T00:37:50.924Z,516.00
2023-04-17T00:38:50.951Z,517.00
2023-04-17T00:39:50.977Z,511.00
2023-04-17T00:40:51.005Z,511.00
2023-04-17T00:41:51.012Z,510.00
2023-04-17T00:42:51.055Z,511.00
2023-04-17T00:43:51.069Z,509.00
2023-04-17T00:44:51.096Z,514.00
2023-04-17T00:45:51.170Z,509.00
2023-04-17T00:46:51.974Z,508.00
2023-04-17T00:47:51.283Z,512.00
2023-04-17T00:48:51.205Z,512.00
2023-04-17T00:49:51.313Z,514.00
2023-04-17T00:50:51.297Z,514.00
2023-04-17T00:51:51.314Z,508.00
2023-04-17T00:52:51.371Z,509.00
2023-04-17T00:53:51.475Z,516.00
2023-04-17T00:54:51.510Z,508.00
2023-04-17T00:55:51.492Z,512.00
2023-04-17T00:56:51.528Z,513.00
2023-04-17T00:57:51.573Z,512.00
2023-04-17T00:58:51.603Z,510.00
2023-04-17T00:59:51.637Z,515.00
2023-04-17T01:00:51.717Z,512.00
2023-04-17T01:01:51.853Z,512.00
2023-04-17T01:02:51.890Z,507.00
2023-04-17T01:03:51.961Z,509.00
2023-04-17T01:04:51.839Z,513.00
2023-04-17T01:05:51.884Z,513.00
2023-04-17T01:06:51.916Z,508.00
2023-04-17T01:07:51.963Z,511.00
2023-04-17T01:08:52.000Z,509.00
2023-04-17T01:09:52.051Z,513.00
2023-04-17T01:10:52.989Z,515.00
2023-04-17T01:11:52.110Z,517.00
2023-04-17T01:12:52.163Z,510.00
2023-04-17T01:13:52.213Z,512.00
2023-04-17T01:14:52.257Z,508.00
2023-04-17T01:15:52.289Z,519.00
2023-04-17T01:16:52.377Z,514.00
2023-04-17T01:17:52.427Z,514.00
2023-04-17T01:18:52.422Z,512.00
2023-04-17T01:19:52.477Z,511.00
2023-04-17T01:20:52.515Z,514.00
2023-04-17T01:21:52.561Z,511.00
2023-04-17T01:22:52.636Z,509.00
2023-04-17T01:23:52.733Z,517.00
2023-04-17T01:24:52.733Z,509.00
2023-04-17T01:25:52.812Z,515.00
2023-04-17T01:26:52.788Z,509.00
2023-04-17T01:27:52.824Z,508.00
2023-04-17T01:28:52.871Z,514.00
2023-04-17T01:29:52.909Z,511.00
2023-04-17T01:30:53.045Z,505.00
2023-04-17T01:31:52.994Z,510.00
2023-04-17T01:32:53.152Z,507.00
2023-04-17T01:33:53.089Z,509.00
2023-04-17T01:34:53.119Z,512.00
2023-04-17T01:35:53.167Z,510.00
2023-04-17T01:36:53.195Z,511.00
2023-04-17T01:37:53.235Z,508.00
2023-04-17T01:38:53.278Z,509.00
2023-04-17T01:39:53.359Z,513.00
2023-04-17T01:40:53.363Z,512.00
2023-04-17T01:41:53.402Z,513.00
2023-04-17T01:42:53.435Z,509.00
2023-04-17T01:43:53.535Z,507.00
2023-04-17T01:44:53.496Z,507.00
2023-04-17T01:45:53.591Z,510.00
2023-04-17T01:46:53.570Z,510.00
2023-04-17T01:47:53.624Z,510.00
2023-04-17T01:48:53.633Z,511.00
2023-04-17T01:49:53.669Z,508.00
2023-04-17T01:50:54.005Z,513.00
2023-04-17T01:51:53.740Z,512.00
2023-04-17T01:52:53.766Z,512.00
2023-04-17T01:53:53.799Z,514.00
2023-04-17T01:54:53.917Z,511.00
2023-04-17T01:55:53.959Z,511.00
2023-04-17T01:56:53.917Z,508.00
2023-04-17T01:57:53.955Z,512.00
2023-04-17T01:58:53.981Z,509.00
2023-04-17T01:59:54.018Z,512.00
2023-04-17T02:00:55.007Z,509.00
2023-04-17T02:01:54.239Z,511.00
2023-04-17T02:02:54.186Z,515.00
2023-04-17T02:03:54.433Z,510.00
2023-04-17T02:04:54.179Z,510.00
2023-04-17T02:05:54.208Z,512.00
2023-04-17T02:06:54.230Z,510.00
2023-04-17T02:07:54.253Z,507.00
2023-04-17T02:08:54.277Z,513.00
2023-04-17T02:09:54.308Z,507.00
2023-04-17T02:10:54.342Z,511.00
2023-04-17T02:11:54.368Z,508.00
2023-04-17T02:12:54.404Z,512.00
2023-04-17T02:13:54.438Z,514.00
2023-04-17T02:14:54.449Z,506.00
2023-04-17T02:15:54.541Z,513.00
2023-04-17T02:16:54.545Z,512.00
2023-04-17T02:17:54.565Z,505.00
2023-04-17T02:18:54.573Z,509.00
2023-04-17T02:19:54.615Z,504.00
2023-04-17T02:20:54.653Z,510.00
2023-04-17T02:21:54.666Z,510.00
2023-04-17T02:22:54.698Z,509.00
2023-04-17T02:23:54.728Z,508.00
2023-04-17T02:24:54.827Z,514.00
2023-04-17T02:25:54.790Z,512.00
2023-04-17T02:26:54.819Z,506.00
2023-04-17T02:27:54.839Z,510.00
2023-04-17T02:28:54.882Z,513.00
2023-04-17T02:29:54.899Z,509.00
2023-04-17T02:30:55.004Z,504.00
2023-04-17T02:31:54.953Z,507.00
2023-04-17T02:32:55.046Z,509.00
2023-04-17T02:33:55.004Z,510.00
2023-04-17T02:34:55.034Z,506.00
2023-04-17T02:35:55.061Z,507.00
2023-04-17T02:36:55.102Z,511.00
2023-04-17T02:37:55.105Z,510.00
2023-04-17T02:38:55.132Z,507.00
2023-04-17T02:39:55.236Z,509.00
2023-04-17T02:40:55.174Z,509.00
2023-04-17T02:41:55.201Z,505.00
2023-04-17T02:42:55.218Z,509.00
2023-04-17T02:43:55.241Z,509.00
2023-04-17T02:44:55.262Z,507.00
2023-04-17T02:45:55.299Z,506.00
2023-04-17T02:46:55.402Z,506.00
2023-04-17T02:47:55.475Z,513.00
2023-04-17T02:48:55.382Z,507.00
2023-04-17T02:49:55.407Z,508.00
2023-04-17T02:50:55.518Z,505.00
2023-04-17T02:51:55.475Z,503.00
2023-04-17T02:52:55.493Z,509.00
2023-04-17T02:53:55.521Z,511.00
2023-04-17T02:54:55.538Z,509.00
2023-04-17T02:55:55.696Z,511.00
2023-04-17T02:56:55.601Z,509.00
2023-04-17T02:57:55.619Z,509.00
2023-04-17T02:58:55.652Z,505.00
2023-04-17T02:59:55.677Z,506.00
2023-04-17T03:00:55.746Z,506.00
2023-04-17T03:01:55.815Z,506.00
2023-04-17T03:02:55.853Z,509.00
2023-04-17T03:03:55.978Z,510.00
2023-04-17T03:04:55.831Z,510.00
2023-04-17T03:05:56.526Z,507.00
2023-04-17T03:06:55.884Z,508.00
2023-04-17T03:07:55.976Z,500.00
2023-04-17T03:08:55.940Z,500.00
2023-04-17T03:09:56.009Z,512.00
2023-04-17T03:10:55.998Z,510.00
2023-04-17T03:11:56.034Z,508.00
2023-04-17T03:12:56.075Z,505.00
2023-04-17T03:13:56.078Z,507.00
2023-04-17T03:14:56.102Z,505.00
2023-04-17T03:15:56.133Z,504.00
2023-04-17T03:16:56.241Z,512.00
2023-04-17T03:17:56.207Z,509.00
2023-04-17T03:18:56.209Z,507.00
2023-04-17T03:19:56.248Z,503.00
2023-04-17T03:20:56.541Z,502.00
2023-04-17T03:21:56.285Z,508.00
2023-04-17T03:22:56.344Z,509.00
2023-04-17T03:23:56.346Z,509.00
2023-04-17T03:24:56.386Z,508.00
2023-04-17T03:25:56.408Z,509.00
2023-04-17T03:26:56.507Z,503.00
2023-04-17T03:27:56.599Z,506.00
2023-04-17T03:28:56.512Z,509.00
2023-04-17T03:29:56.554Z,504.00
2023-04-17T03:30:56.641Z,505.00
2023-04-17T03:31:56.657Z,511.00
2023-04-17T03:32:56.673Z,504.00
2023-04-17T03:33:56.654Z,504.00
2023-04-17T03:34:56.696Z,512.00
2023-04-17T03:35:56.718Z,507.00
2023-04-17T03:36:56.728Z,503.00
2023-04-17T03:37:56.750Z,507.00
2023-04-17T03:38:56.776Z,507.00
2023-04-17T03:39:56.806Z,506.00
2023-04-17T03:40:56.825Z,507.00
2023-04-17T03:41:56.920Z,510.00
2023-04-17T03:42:56.896Z,506.00
2023-04-17T03:43:57.543Z,509.00
2023-04-17T03:44:56.943Z,506.00
2023-04-17T03:45:56.989Z,505.00
2023-04-17T03:46:57.014Z,506.00
2023-04-17T03:47:57.065Z,506.00
2023-04-17T03:48:57.073Z,505.00
2023-04-17T03:49:57.101Z,510.00
2023-04-17T03:50:57.122Z,506.00
2023-04-17T03:51:57.150Z,507.00
2023-04-17T03:52:57.261Z,505.00
2023-04-17T03:53:57.191Z,507.00
2023-04-17T03:54:57.228Z,507.00
2023-04-17T03:55:57.312Z,507.00
2023-04-17T03:56:57.293Z,506.00
2023-04-17T03:57:58.044Z,508.00
2023-04-17T03:58:57.334Z,507.00
2023-04-17T03:59:57.387Z,504.00
2023-04-17T04:00:57.386Z,506.00
2023-04-17T04:01:57.512Z,504.00
2023-04-17T04:02:57.610Z,509.00
2023-04-17T04:03:57.591Z,510.00
2023-04-17T04:04:57.509Z,511.00
2023-04-17T04:05:57.526Z,510.00
2023-04-17T04:06:58.127Z,513.00
2023-04-17T04:07:57.599Z,507.00
2023-04-17T04:08:57.603Z,509.00
2023-04-17T04:09:57.635Z,510.00
2023-04-17T04:10:57.665Z,509.00
2023-04-17T04:11:57.687Z,512.00
2023-04-17T04:12:57.716Z,513.00
2023-04-17T04:13:57.745Z,512.00
2023-04-17T04:14:57.799Z,506.00
2023-04-17T04:15:57.846Z,506.00
2023-04-17T04:16:57.809Z,509.00
2023-04-17T04:17:57.943Z,510.00
2023-04-17T04:18:57.854Z,510.00
2023-04-17T04:19:57.889Z,513.00
2023-04-17T04:20:57.944Z,508.00
2023-04-17T04:21:57.940Z,513.00
2023-04-17T04:22:57.959Z,509.00
2023-04-17T04:23:58.546Z,510.00
2023-04-17T04:24:58.075Z,507.00
2023-04-17T04:25:58.071Z,508.00
2023-04-17T04:26:58.075Z,509.00
2023-04-17T04:27:58.098Z,510.00
2023-04-17T04:28:58.120Z,507.00
2023-04-17T04:29:58.141Z,509.00
2023-04-17T04:30:58.214Z,506.00
2023-04-17T04:31:58.318Z,509.00
2023-04-17T04:32:58.258Z,507.00
2023-04-17T04:33:58.332Z,512.00
2023-04-17T04:34:58.340Z,506.00
2023-04-17T04:35:58.321Z,507.00
2023-04-17T04:36:58.330Z,508.00
2023-04-17T04:37:58.361Z,511.00
2023-04-17T04:38:58.400Z,510.00
2023-04-17T04:39:58.410Z,505.00
2023-04-17T04:40:58.433Z,504.00
2023-04-17T04:41:58.532Z,508.00
2023-04-17T04:42:58.483Z,505.00
2023-04-17T04:43:58.494Z,508.00
2023-04-17T04:44:58.523Z,509.00
2023-04-17T04:45:58.556Z,512.00
2023-04-17T04:46:59.687Z,511.00
2023-04-17T04:47:58.634Z,510.00
2023-04-17T04:48:58.615Z,512.00
2023-04-17T04:49:58.709Z,508.00
2023-04-17T04:50:58.677Z,507.00
2023-04-17T04:51:59.069Z,507.00
2023-04-17T04:52:58.723Z,508.00
2023-04-17T04:53:58.734Z,511.00
2023-04-17T04:54:58.759Z,509.00
2023-04-17T04:55:58.795Z,508.00
2023-04-17T04:56:58.817Z,509.00
2023-04-17T04:57:58.921Z,509.00
2023-04-17T04:58:58.864Z,510.00
2023-04-17T04:59:58.898Z,507.00
2023-04-17T05:00:58.972Z,507.00
2023-04-17T05:01:59.061Z,507.00
2023-04-17T05:02:59.234Z,505.00
2023-04-17T05:03:59.190Z,505.00
2023-04-17T05:04:59.134Z,509.00
2023-04-17T05:05:59.070Z,508.00
2023-04-17T05:06:59.096Z,508.00
2023-04-17T05:07:59.130Z,512.00
2023-04-17T05:08:59.155Z,508.00
2023-04-17T05:09:59.185Z,508.00
2023-04-17T05:10:59.225Z,510.00
2023-04-17T05:11:59.250Z,510.00
2023-04-17T05:12:59.292Z,509.00
2023-04-17T05:13:59.278Z,506.00
2023-04-17T05:14:59.306Z,512.00
2023-04-17T05:16:01.521Z,511.00
2023-04-17T05:17:00.364Z,511.00
2023-04-17T05:17:59.495Z,512.00
2023-04-17T05:18:59.391Z,513.00
2023-04-17T05:19:59.459Z,518.00
2023-04-17T05:20:59.421Z,527.00
2023-04-17T05:21:59.434Z,528.00
2023-04-17T05:22:59.455Z,533.00
2023-04-17T05:23:59.532Z,537.00
2023-04-17T05:24:59.466Z,569.00
2023-04-17T05:25:59.480Z,581.00
2023-04-17T05:26:59.494Z,574.00
2023-04-17T05:28:00.048Z,572.00
2023-04-17T05:28:59.515Z,588.00
2023-04-17T05:29:59.538Z,591.00
2023-04-17T05:30:59.569Z,598.00
2023-04-17T05:31:59.610Z,607.00
2023-04-17T05:33:01.162Z,616.00
2023-04-17T05:33:59.609Z,626.00
2023-04-17T05:35:00.583Z,640.00
2023-04-17T05:35:59.619Z,660.00
2023-04-17T05:36:59.633Z,675.00
2023-04-17T05:37:59.717Z,722.00
2023-04-17T05:38:59.636Z,750.00
2023-04-17T05:40:00.635Z,792.00
2023-04-17T05:40:59.652Z,843.00
2023-04-17T05:42:00.600Z,862.00
2023-04-17T05:42:59.791Z,900.00
2023-04-17T05:43:59.838Z,966.00
2023-04-17T05:44:59.897Z,978.00
2023-04-17T05:45:59.957Z,996.00
2023-04-17T05:47:00.004Z,1064.00
2023-04-17T05:48:00.152Z,1115.00
2023-04-17T05:49:00.138Z,1180.00
2023-04-17T05:50:01.091Z,1249.00
2023-04-17T05:51:00.169Z,1303.00
2023-04-17T05:52:00.239Z,1348.00
2023-04-17T05:53:00.266Z,1385.00
2023-04-17T05:54:01.338Z,1387.00
2023-04-17T05:55:02.107Z,1401.00
2023-04-17T05:56:00.324Z,1438.00
2023-04-17T05:57:00.338Z,1484.00
2023-04-17T05:58:02.353Z,1522.00
2023-04-17T05:59:01.272Z,1389.00
2023-04-17T06:00:00.259Z,1397.00
2023-04-17T06:01:00.257Z,1396.00
2023-04-17T06:02:00.487Z,1407.00
2023-04-17T06:03:00.415Z,1426.00
2023-04-17T06:04:01.635Z,1450.00
2023-04-17T06:05:00.415Z,1466.00
2023-04-17T06:06:00.293Z,1507.00
2023-04-17T06:07:01.125Z,1534.00
2023-04-17T06:08:00.244Z,1568.00
2023-04-17T06:09:00.247Z,1605.00
2023-04-17T06:10:00.332Z,1642.00
2023-04-17T06:11:00.254Z,1661.00
2023-04-17T06:12:00.238Z,1683.00
2023-04-17T06:13:00.251Z,1698.00
2023-04-17T06:14:00.224Z,1704.00
2023-04-17T06:15:00.227Z,1729.00
2023-04-17T06:16:00.231Z,1786.00
2023-04-17T06:17:00.246Z,1805.00
2023-04-17T06:18:00.305Z,1840.00
2023-04-17T06:19:00.244Z,1825.00
2023-04-17T06:20:00.252Z,1833.00
2023-04-17T06:21:00.255Z,1815.00
2023-04-17T06:22:00.274Z,1806.00
2023-04-17T06:23:00.283Z,1810.00
2023-04-17T06:24:00.301Z,1808.00
2023-04-17T06:25:00.314Z,1819.00
2023-04-17T06:26:01.124Z,1819.00
2023-04-17T06:27:00.367Z,1805.00
2023-04-17T06:28:00.372Z,1812.00
2023-04-17T06:29:00.400Z,1826.00
2023-04-17T06:30:00.438Z,1822.00
2023-04-17T06:31:00.531Z,1819.00
2023-04-17T06:32:01.455Z,1819.00
2023-04-17T06:33:00.547Z,1821.00
2023-04-17T06:34:00.475Z,1823.00
2023-04-17T06:35:00.443Z,1818.00
2023-04-17T06:36:00.438Z,1830.00
2023-04-17T06:37:00.451Z,1822.00
2023-04-17T06:38:01.112Z,1815.00
2023-04-17T06:39:00.444Z,1821.00
2023-04-17T06:40:00.446Z,1798.00
2023-04-17T06:41:00.452Z,1804.00
2023-04-17T06:42:00.460Z,1804.00
2023-04-17T06:43:00.436Z,1816.00
2023-04-17T06:44:00.460Z,1790.00
2023-04-17T06:45:00.486Z,1794.00
2023-04-17T06:46:00.587Z,1791.00
2023-04-17T06:47:02.785Z,1783.00
2023-04-17T06:48:01.655Z,1784.00
2023-04-17T06:49:00.550Z,1783.00
2023-04-17T06:50:00.549Z,1787.00
2023-04-17T06:51:00.548Z,1786.00
2023-04-17T06:52:00.574Z,1777.00
2023-04-17T06:53:00.558Z,1787.00
2023-04-17T06:54:00.553Z,1768.00
2023-04-17T06:55:00.620Z,1769.00
2023-04-17T06:56:00.605Z,1771.00
2023-04-17T06:57:00.558Z,1767.00
2023-04-17T06:58:00.677Z,1758.00
2023-04-17T06:59:02.423Z,1749.00
2023-04-17T07:00:00.808Z,1766.00
2023-04-17T07:01:00.704Z,1747.00
2023-04-17T07:02:00.840Z,1739.00
2023-04-17T07:03:00.916Z,1733.00
2023-04-17T07:04:00.931Z,1734.00
2023-04-17T07:05:00.928Z,1726.00
2023-04-17T07:06:01.038Z,1737.00
2023-04-17T07:07:01.051Z,1729.00
2023-04-17T07:08:02.163Z,1719.00
2023-04-17T07:09:01.176Z,1709.00
2023-04-17T07:10:01.247Z,1715.00
2023-04-17T07:11:01.282Z,1702.00
2023-04-17T07:12:01.341Z,1702.00
2023-04-17T07:13:02.206Z,1701.00
2023-04-17T07:14:01.475Z,1702.00
2023-04-17T07:15:01.616Z,1700.00
2023-04-17T07:16:01.679Z,1705.00
2023-04-17T07:17:01.628Z,1685.00
2023-04-17T07:18:01.738Z,1692.00
2023-04-17T07:19:01.730Z,1676.00
2023-04-17T07:20:01.786Z,1683.00
2023-04-17T07:21:01.838Z,1673.00
2023-04-17T07:22:01.896Z,1661.00
2023-04-17T07:23:01.941Z,1662.00
2023-04-17T07:24:02.547Z,1669.00
2023-04-17T07:25:02.038Z,1664.00
2023-04-17T07:26:03.044Z,1666.00
2023-04-17T07:27:02.071Z,1672.00
2023-04-17T07:28:03.939Z,1681.00
2023-04-17T07:29:02.095Z,1684.00
2023-04-17T07:30:02.168Z,1681.00
2023-04-17T07:31:02.223Z,1645.00
2023-04-17T07:32:03.335Z,1631.00
2023-04-17T07:33:02.222Z,1584.00
2023-04-17T07:34:02.156Z,1522.00
2023-04-17T07:35:02.195Z,1488.00
2023-04-17T07:36:02.177Z,1463.00
2023-04-17T07:37:02.185Z,1427.00
2023-04-17T07:38:03.045Z,1393.00
2023-04-17T07:39:03.116Z,1334.00
2023-04-17T07:40:03.123Z,1301.00
2023-04-17T07:41:03.129Z,1308.00
2023-04-17T07:42:02.164Z,1319.00
2023-04-17T07:43:02.152Z,1312.00
2023-04-17T07:44:02.164Z,1331.00
2023-04-17T07:45:02.147Z,1326.00
2023-04-17T07:46:02.150Z,1349.00
2023-04-17T07:47:02.257Z,1359.00
2023-04-17T07:48:02.177Z,1368.00
2023-04-17T07:49:02.137Z,1405.00
2023-04-17T07:50:02.213Z,1413.00
2023-04-17T07:51:02.169Z,1456.00
2023-04-17T07:52:02.157Z,1477.00
2023-04-17T07:53:02.196Z,1514.00
2023-04-17T07:54:02.236Z,1535.00
2023-04-17T07:55:02.289Z,1556.00
2023-04-17T07:56:02.353Z,1564.00
2023-04-17T07:57:02.441Z,1598.00
2023-04-17T07:58:02.433Z,1605.00
2023-04-17T07:59:02.482Z,1651.00
2023-04-17T08:00:03.126Z,1668.00
2023-04-17T08:01:02.582Z,1696.00
2023-04-17T08:02:02.790Z,1725.00
2023-04-17T08:03:02.823Z,1742.00
2023-04-17T08:04:02.988Z,1756.00
2023-04-17T08:05:02.876Z,1781.00
2023-04-17T08:06:02.702Z,1800.00
2023-04-17T08:07:02.740Z,1821.00
2023-04-17T08:08:03.630Z,1843.00
2023-04-17T08:09:03.145Z,1873.00
2023-04-17T08:10:03.629Z,1884.00
2023-04-17T08:11:02.835Z,1930.00
2023-04-17T08:12:02.849Z,1919.00
2023-04-17T08:13:02.884Z,1935.00
2023-04-17T08:14:02.910Z,1929.00
2023-04-17T08:15:02.951Z,1897.00
2023-04-17T08:16:02.986Z,1785.00
2023-04-17T08:17:03.021Z,1730.00
2023-04-17T08:18:03.047Z,1699.00
2023-04-17T08:19:03.016Z,1693.00
2023-04-17T08:20:03.030Z,1678.00
2023-04-17T08:21:03.037Z,1667.00
2023-04-17T08:22:03.040Z,1686.00
2023-04-17T08:23:03.065Z,1683.00
2023-04-17T08:24:03.057Z,1691.00
2023-04-17T08:25:03.096Z,1714.00
2023-04-17T08:26:03.097Z,1730.00
2023-04-17T08:27:03.218Z,1735.00
2023-04-17T08:28:03.223Z,1763.00
2023-04-17T08:29:03.249Z,1786.00
2023-04-17T08:30:03.326Z,1808.00
2023-04-17T08:31:03.365Z,1824.00
2023-04-17T08:32:13.914Z,1867.00
2023-04-17T08:33:04.388Z,1868.00
2023-04-17T08:34:13.653Z,1876.00
2023-04-17T08:35:03.344Z,1871.00
2023-04-17T08:36:04.287Z,1885.00
2023-04-17T08:37:03.279Z,1918.00
2023-04-17T08:38:03.288Z,1966.00
2023-04-17T08:39:03.245Z,2061.00
2023-04-17T08:40:03.246Z,2104.00
2023-04-17T08:41:03.233Z,2118.00
2023-04-17T08:42:03.204Z,2158.00
2023-04-17T08:43:03.189Z,2176.00
2023-04-17T08:44:03.169Z,2194.00
2023-04-17T08:45:03.152Z,2221.00
2023-04-17T08:46:03.169Z,2255.00
2023-04-17T08:47:03.104Z,2281.00
2023-04-17T08:48:03.144Z,2305.00
2023-04-17T08:49:03.123Z,2331.00
2023-04-17T08:50:03.733Z,2361.00
2023-04-17T08:51:03.159Z,2374.00
2023-04-17T08:52:03.137Z,2410.00
2023-04-17T08:53:03.152Z,2430.00
2023-04-17T08:54:03.151Z,2457.00
2023-04-17T08:55:04.229Z,2485.00
2023-04-17T08:56:03.766Z,2506.00
2023-04-17T08:57:03.186Z,2513.00
2023-04-17T08:58:03.210Z,2534.00
2023-04-17T08:59:03.205Z,2553.00
2023-04-17T09:00:03.204Z,2567.00
2023-04-17T09:01:03.203Z,2594.00
2023-04-17T09:02:03.344Z,2596.00
2023-04-17T09:03:03.339Z,2615.00
2023-04-17T09:04:03.383Z,2649.00
2023-04-17T09:05:03.290Z,2665.00
2023-04-17T09:06:03.289Z,2678.00
2023-04-17T09:07:03.202Z,2689.00
2023-04-17T09:08:03.197Z,2697.00
2023-04-17T09:09:03.281Z,2719.00
2023-04-17T09:10:03.181Z,2731.00
2023-04-17T09:11:03.185Z,2738.00
2023-04-17T09:12:03.196Z,2761.00
2023-04-17T09:13:03.182Z,2790.00
2023-04-17T09:14:03.195Z,2792.00
2023-04-17T09:15:03.193Z,2809.00
2023-04-17T09:16:03.231Z,2819.00
2023-04-17T09:17:03.196Z,2827.00
2023-04-17T09:18:03.295Z,2857.00
2023-04-17T09:19:03.172Z,2867.00
2023-04-17T09:20:03.178Z,2851.00
2023-04-17T09:21:03.187Z,2843.00
2023-04-17T09:22:03.293Z,2822.00
2023-04-17T09:23:03.210Z,2802.00
2023-04-17T09:24:03.216Z,2788.00
2023-04-17T09:25:03.223Z,2773.00
2023-04-17T09:26:03.250Z,2745.00
2023-04-17T09:27:04.235Z,2745.00
2023-04-17T09:28:03.226Z,2708.00
2023-04-17T09:29:03.217Z,2676.00
2023-04-17T09:30:03.186Z,2663.00
2023-04-17T09:31:04.210Z,2679.00
2023-04-17T09:32:03.231Z,2629.00
2023-04-17T09:33:03.182Z,2605.00
2023-04-17T09:34:03.118Z,2586.00
2023-04-17T09:35:03.106Z,2568.00
2023-04-17T09:36:03.102Z,2551.00
2023-04-17T09:37:03.230Z,2521.00
2023-04-17T09:38:03.072Z,2519.00
2023-04-17T09:39:03.056Z,2489.00
2023-04-17T09:40:03.671Z,2472.00
2023-04-17T09:41:03.680Z,2465.00
2023-04-17T09:42:03.618Z,2446.00
2023-04-17T09:43:03.202Z,2426.00
2023-04-17T09:44:03.369Z,2413.00
2023-04-17T09:45:03.313Z,2402.00
2023-04-17T09:46:03.369Z,2387.00
2023-04-17T09:47:03.581Z,2381.00
2023-04-17T09:48:03.551Z,2358.00
2023-04-17T09:49:03.551Z,2349.00
2023-04-17T09:50:03.617Z,2340.00
2023-04-17T09:51:04.181Z,2323.00
2023-04-17T09:52:03.759Z,2320.00
2023-04-17T09:53:03.815Z,2294.00
2023-04-17T09:54:03.882Z,2287.00
2023-04-17T09:55:03.931Z,2284.00
2023-04-17T09:56:03.987Z,2277.00
2023-04-17T09:57:04.685Z,2263.00
2023-04-17T09:58:04.080Z,2253.00
2023-04-17T09:59:04.207Z,2241.00
2023-04-17T10:00:04.259Z,2233.00
2023-04-17T10:01:04.255Z,2224.00
2023-04-17T10:02:04.341Z,2206.00
2023-04-17T10:03:04.500Z,2201.00
2023-04-17T10:04:05.455Z,2202.00
2023-04-17T10:05:04.455Z,2204.00
2023-04-17T10:06:05.207Z,2172.00
2023-04-17T10:07:04.571Z,2165.00
2023-04-17T10:08:04.649Z,2145.00
2023-04-17T10:09:04.692Z,2153.00
2023-04-17T10:10:04.762Z,2132.00
2023-04-17T10:11:04.800Z,2122.00
2023-04-17T10:12:05.790Z,2123.00
2023-04-17T10:13:04.850Z,2123.00
2023-04-17T10:14:04.794Z,2116.00
2023-04-17T10:15:04.867Z,2106.00
2023-04-17T10:16:04.997Z,2080.00
2023-04-17T10:17:05.683Z,2104.00
2023-04-17T10:18:04.820Z,2067.00
2023-04-17T10:19:04.731Z,2051.00
2023-04-17T10:20:04.778Z,2049.00
2023-04-17T10:21:06.587Z,2044.00
2023-04-17T10:22:04.839Z,2049.00
2023-04-17T10:23:04.885Z,2029.00
2023-04-17T10:24:04.941Z,2021.00
2023-04-17T10:25:05.170Z,2021.00
2023-04-17T10:26:05.190Z,1994.00
2023-04-17T10:27:06.466Z,2005.00
2023-04-17T10:28:05.294Z,1998.00
2023-04-17T10:29:05.478Z,1989.00
2023-04-17T10:30:05.395Z,1990.00
2023-04-17T10:31:05.453Z,1968.00
2023-04-17T10:32:05.558Z,1958.00
2023-04-17T10:33:06.558Z,1961.00
2023-04-17T10:34:06.189Z,1949.00
2023-04-17T10:35:05.699Z,1952.00
2023-04-17T10:36:05.704Z,1929.00
2023-04-17T10:37:05.832Z,1917.00
2023-04-17T10:38:05.801Z,1924.00
2023-04-17T10:39:05.840Z,1932.00
2023-04-17T10:40:05.888Z,1911.00
2023-04-17T10:41:05.936Z,1934.00
2023-04-17T10:42:05.989Z,1914.00
2023-04-17T10:43:05.996Z,1903.00
2023-04-17T10:44:06.044Z,1914.00
2023-04-17T10:45:06.061Z,1918.00
2023-04-17T10:46:06.173Z,1906.00
2023-04-17T10:47:06.109Z,1913.00
2023-04-17T10:48:06.202Z,1904.00
2023-04-17T10:49:06.180Z,1903.00
2023-04-17T10:50:06.208Z,1888.00
2023-04-17T10:51:06.241Z,1903.00
2023-04-17T10:52:06.252Z,1906.00
2023-04-17T10:53:06.300Z,1887.00
2023-04-17T10:54:06.291Z,1882.00
2023-04-17T10:55:06.318Z,1894.00
2023-04-17T10:56:06.346Z,1878.00
2023-04-17T10:57:06.436Z,1885.00
2023-04-17T10:58:06.424Z,1867.00
2023-04-17T10:59:06.474Z,1879.00
2023-04-17T11:00:07.205Z,1868.00
2023-04-17T11:01:06.549Z,1864.00
2023-04-17T11:02:06.612Z,1866.00
2023-04-17T11:03:06.716Z,1872.00
2023-04-17T11:04:06.645Z,1869.00
2023-04-17T11:05:06.748Z,1854.00
2023-04-17T11:06:06.919Z,1860.00
2023-04-17T11:07:06.809Z,1859.00
2023-04-17T11:08:07.800Z,1859.00
2023-04-17T11:09:06.890Z,1861.00
2023-04-17T11:10:06.804Z,1865.00
2023-04-17T11:11:06.797Z,1862.00
2023-04-17T11:12:06.794Z,1855.00
2023-04-17T11:13:06.808Z,1855.00
2023-04-17T11:14:06.798Z,1851.00
2023-04-17T11:15:06.791Z,1862.00
2023-04-17T11:16:06.798Z,1856.00
2023-04-17T11:17:06.866Z,1854.00
2023-04-17T11:18:06.919Z,1833.00
2023-04-17T11:19:06.944Z,1841.00
2023-04-17T11:20:06.987Z,1846.00
2023-04-17T11:21:07.036Z,1834.00
2023-04-17T11:22:07.710Z,1826.00
2023-04-17T11:23:07.088Z,1825.00
2023-04-17T11:24:07.109Z,1827.00
2023-04-17T11:25:07.126Z,1825.00
2023-04-17T11:26:07.164Z,1829.00
2023-04-17T11:27:07.201Z,1815.00
2023-04-17T11:28:07.293Z,1814.00
2023-04-17T11:29:07.216Z,1808.00
2023-04-17T11:30:07.228Z,1813.00
2023-04-17T11:31:07.260Z,1816.00
2023-04-17T11:32:07.222Z,1814.00
2023-04-17T11:33:07.310Z,1807.00
2023-04-17T11:34:07.317Z,1797.00
2023-04-17T11:35:07.362Z,1806.00
2023-04-17T11:36:08.217Z,1797.00
2023-04-17T11:37:07.418Z,1802.00
2023-04-17T11:38:07.444Z,1806.00
2023-04-17T11:39:07.484Z,1801.00
2023-04-17T11:40:07.741Z,1788.00
2023-04-17T11:41:07.522Z,1776.00
2023-04-17T11:42:07.550Z,1787.00
2023-04-17T11:43:07.589Z,1776.00
2023-04-17T11:44:07.625Z,1772.00
2023-04-17T11:45:07.641Z,1789.00
2023-04-17T11:46:07.860Z,1781.00
2023-04-17T11:47:07.684Z,1767.00
2023-04-17T11:48:07.680Z,1780.00
2023-04-17T11:49:07.696Z,1767.00
2023-04-17T11:50:07.716Z,1768.00
2023-04-17T11:51:07.694Z,1753.00
2023-04-17T11:52:07.713Z,1773.00
2023-04-17T11:53:07.821Z,1758.00
2023-04-17T11:54:07.770Z,1759.00
2023-04-17T11:55:07.743Z,1755.00
2023-04-17T11:56:07.761Z,1742.00
2023-04-17T11:57:07.764Z,1742.00
2023-04-17T11:58:07.751Z,1736.00
2023-04-17T11:59:07.749Z,1719.00
2023-04-17T12:00:07.758Z,1729.00
2023-04-17T12:01:07.756Z,1733.00
2023-04-17T12:02:07.974Z,1749.00
2023-04-17T12:03:07.930Z,1724.00
2023-04-17T12:04:07.853Z,1729.00
2023-04-17T12:05:08.010Z,1725.00
2023-04-17T12:06:07.889Z,1715.00
2023-04-17T12:07:08.285Z,1725.00
2023-04-17T12:08:07.821Z,1707.00
2023-04-17T12:09:07.827Z,1703.00
2023-04-17T12:10:07.826Z,1715.00
2023-04-17T12:11:07.832Z,1708.00
2023-04-17T12:12:08.112Z,1709.00
2023-04-17T12:13:07.849Z,1696.00
2023-04-17T12:14:07.850Z,1691.00
2023-04-17T12:15:07.852Z,1709.00
2023-04-17T12:16:07.899Z,1699.00
2023-04-17T12:17:07.872Z,1702.00